Erietta — D5HL5 — position and weather

sailwx.info

Track history (hours):
 
Tides and Currents Weather Stations Pressure Air Temp Water Temp Dewpoint Dewpoint Depression Visibility Wind Speed Wind Dir Waves Ship Positions

Erietta

Last reported at 2018-Apr-23 10:13 UTC. Time now 2018-May-23 03:37 UTC.
Position N 07°24' W 014°34'.
Warning: this ship's position is 29 days out of date.

Length 199 m; draft 9.4 m.

Type: Cargo ship. MMSI: 636016721.

Date/timePositionNaut miles runAvg speedWind from/ knotsBaromVisibWave heightAir tempDewpointWater temp
2018-Apr-23 10:13N 07°24' W 014°34'613.1
2018-Apr-23 09:47N 07°29' W 014°38'413.9
2018-Apr-23 09:30N 07°31' W 014°41'714.0
2018-Apr-23 09:00N 07°35' W 014°46'714.2
2018-Apr-23 08:30N 07°40' W 014°52'714.1
2018-Apr-23 08:00N 07°44' W 014°58'1714.1
2018-Apr-23 06:48N 07°54' W 015°11'414.2
2018-Apr-23 06:30N 07°57' W 015°15'714.2
2018-Apr-23 05:59N 08°01' W 015°21'713.8
2018-Apr-23 05:31N 08°05' W 015°26'713.9
2018-Apr-23 05:00N 08°09' W 015°32'1214.1
2018-Apr-23 04:11N 08°16' W 015°41'414.0
2018-Apr-23 03:53N 08°19' W 015°44'514.1
2018-Apr-23 03:30N 08°22' W 015°49'713.9
2018-Apr-23 03:00N 08°26' W 015°54'713.9
2018-Apr-23 02:30N 08°30' W 015°60'714.0
2018-Apr-23 02:00N 08°35' W 016°06'714.1
2018-Apr-23 01:30N 08°39' W 016°11'714.1
2018-Apr-23 01:01N 08°43' W 016°17'714.0
2018-Apr-23 00:30N 08°47' W 016°22'713.8
2018-Apr-23 00:00N 08°51' W 016°28'713.9
2018-Apr-22 23:30N 08°56' W 016°34'713.9
2018-Apr-22 23:01N 08°60' W 016°39'713.6
2018-Apr-22 22:30N 09°04' W 016°45'713.6
2018-Apr-22 22:00N 09°08' W 016°50'713.7
2018-Apr-22 21:30N 09°12' W 016°56'713.6
2018-Apr-22 21:00N 09°16' W 017°01'713.5
2018-Apr-22 20:30N 09°20' W 017°07'713.4
2018-Apr-22 20:00N 09°24' W 017°12'1313.4
2018-Apr-22 19:04N 09°32' W 017°22'113.3
2018-Apr-22 19:00N 09°32' W 017°23'713.4
2018-Apr-22 18:30N 09°37' W 017°28'2313.4
2018-Apr-22 16:49N 09°50' W 017°47'513.3
2018-Apr-22 16:26N 09°53' W 017°51'  
2018-Apr-19 11:14N 26°48' W 014°24'714.3
2018-Apr-19 10:44N 26°54' W 014°19'1314.2
2018-Apr-19 09:49N 27°04' W 014°11'414.2
2018-Apr-19 09:30N 27°08' W 014°08'714.3
2018-Apr-19 09:01N 27°14' W 014°03'814.4
2018-Apr-19 08:28N 27°20' W 013°58'714.5
2018-Apr-19 08:00N 27°26' W 013°54'1714.6
2018-Apr-19 06:50N 27°40' W 013°43'514.6
2018-Apr-19 06:29N 27°44' W 013°40'714.5
2018-Apr-19 06:00N 27°50' W 013°36'914.5
2018-Apr-19 05:24N 27°57' W 013°30'614.6
2018-Apr-19 05:00N 28°02' W 013°26'814.6
2018-Apr-19 04:28N 28°08' W 013°22'714.7
2018-Apr-19 03:58N 28°14' W 013°17'714.4
2018-Apr-19 03:30N 28°20' W 013°12'814.4
2018-Apr-19 02:57N 28°26' W 013°07'714.0
2018-Apr-19 02:29N 28°32' W 013°03'1614.2
2018-Apr-19 01:23N 28°45' W 012°53'614.6
2018-Apr-19 00:59N 28°50' W 012°50'714.7
2018-Apr-19 00:30N 28°56' W 012°45'714.6
2018-Apr-19 00:00N 29°02' W 012°40'714.5
2018-Apr-18 23:30N 29°08' W 012°36'714.4
2018-Apr-18 23:00N 29°14' W 012°31'714.6
2018-Apr-18 22:30N 29°20' W 012°26'714.6
2018-Apr-18 22:00N 29°26' W 012°22'814.5
2018-Apr-18 21:29N 29°32' W 012°17'714.4
2018-Apr-18 21:00N 29°38' W 012°12'914.3
2018-Apr-18 20:22N 29°45' W 012°06'514.3
2018-Apr-18 20:00N 29°49' W 012°03'814.1
2018-Apr-18 19:28N 29°56' W 011°58'614.1
2018-Apr-18 19:00N 30°01' W 011°54'714.2
2018-Apr-18 18:30N 30°07' W 011°50'714.3
2018-Apr-18 18:00N 30°13' W 011°45'714.2
2018-Apr-18 17:30N 30°19' W 011°40'714.3
2018-Apr-18 17:00N 30°25' W 011°36'714.2
2018-Apr-18 16:30N 30°31' W 011°31'714.1
2018-Apr-18 16:00N 30°37' W 011°26'1414.3
2018-Apr-18 15:00N 30°48' W 011°17'914.5
2018-Apr-18 14:24N 30°56' W 011°11'614.5
2018-Apr-18 13:59N 31°00' W 011°07'814.4
2018-Apr-18 13:27N 31°07' W 011°02'913.8
2018-Apr-18 12:49N 31°14' W 010°57'3814.1
2018-Apr-18 10:08N 31°45' W 010°32'514.1
2018-Apr-18 09:49N 31°49' W 010°29'514.2
2018-Apr-18 09:30N 31°53' W 010°26'814.0
2018-Apr-18 08:56N 31°59' W 010°21'360 8.6
2018-Apr-16 15:00N 36°11' W 005°09'3 6.7
2018-Apr-16 14:29N 36°11' W 005°05'3 6.8
2018-Apr-16 13:59N 36°11' W 005°01'16 1.7
2018-Apr-16 04:38N 36°17' W 004°42'11 4.3
2018-Apr-16 02:03N 36°15' W 004°56'1 3.3
2018-Apr-16 01:50N 36°15' W 004°57'6 3.5
2018-Apr-16 00:02N 36°12' W 005°03'1 3.7
2018-Apr-15 23:51N 36°11' W 005°04'2 0.7
2018-Apr-15 21:17N 36°10' W 005°06'0 0.9
2018-Apr-15 20:58N 36°11' W 005°06'3 7.1
2018-Apr-15 20:30N 36°13' W 005°03'5 8.1
2018-Apr-15 19:56N 36°13' W 004°57'5 9.5
2018-Apr-15 19:23N 36°08' W 004°59'65813.0
2018-Apr-13 16:44N 37°42' E 008°35'1313.3
2018-Apr-13 15:43N 37°44' E 008°52'312.9
2018-Apr-13 15:29N 37°44' E 008°56'613.1
2018-Apr-13 15:00N 37°44' E 009°04'713.0
2018-Apr-13 14:30N 37°43' E 009°12'612.9
2018-Apr-13 14:00N 37°42' E 009°20'712.9
2018-Apr-13 13:30N 37°41' E 009°29'712.8
2018-Apr-13 12:57N 37°41' E 009°38'612.6
2018-Apr-13 12:27N 37°40' E 009°45'613.2
2018-Apr-13 11:59N 37°40' E 009°53'612.8
2018-Apr-13 11:30N 37°39' E 010°01'  
Track history (hours):
 
Tides and Currents Weather Stations Pressure Air Temp Water Temp Dewpoint Dewpoint Depression Visibility Wind Speed Wind Dir Waves Ship Positions

Erietta

Last reported at 2018-Apr-23 10:13 UTC. Time now 2018-May-23 03:37 UTC.
Position N 07°24' W 014°34'.
Warning: this ship's position is 29 days out of date.

Length 199 m; draft 9.4 m.

Type: Cargo ship. MMSI: 636016721.

Date/timePositionNaut miles runAvg speedWind from/ knotsBaromVisibWave heightAir tempDewpointWater temp
2018-Apr-23 10:13N 07°24' W 014°34'613.1
2018-Apr-23 09:47N 07°29' W 014°38'413.9
2018-Apr-23 09:30N 07°31' W 014°41'714.0
2018-Apr-23 09:00N 07°35' W 014°46'714.2
2018-Apr-23 08:30N 07°40' W 014°52'714.1
2018-Apr-23 08:00N 07°44' W 014°58'1714.1
2018-Apr-23 06:48N 07°54' W 015°11'414.2
2018-Apr-23 06:30N 07°57' W 015°15'714.2
2018-Apr-23 05:59N 08°01' W 015°21'713.8
2018-Apr-23 05:31N 08°05' W 015°26'713.9
2018-Apr-23 05:00N 08°09' W 015°32'1214.1
2018-Apr-23 04:11N 08°16' W 015°41'414.0
2018-Apr-23 03:53N 08°19' W 015°44'514.1
2018-Apr-23 03:30N 08°22' W 015°49'713.9
2018-Apr-23 03:00N 08°26' W 015°54'713.9
2018-Apr-23 02:30N 08°30' W 015°60'714.0
2018-Apr-23 02:00N 08°35' W 016°06'714.1
2018-Apr-23 01:30N 08°39' W 016°11'714.1
2018-Apr-23 01:01N 08°43' W 016°17'714.0
2018-Apr-23 00:30N 08°47' W 016°22'713.8
2018-Apr-23 00:00N 08°51' W 016°28'713.9
2018-Apr-22 23:30N 08°56' W 016°34'713.9
2018-Apr-22 23:01N 08°60' W 016°39'713.6
2018-Apr-22 22:30N 09°04' W 016°45'713.6
2018-Apr-22 22:00N 09°08' W 016°50'713.7
2018-Apr-22 21:30N 09°12' W 016°56'713.6
2018-Apr-22 21:00N 09°16' W 017°01'713.5
2018-Apr-22 20:30N 09°20' W 017°07'713.4
2018-Apr-22 20:00N 09°24' W 017°12'1313.4
2018-Apr-22 19:04N 09°32' W 017°22'113.3
2018-Apr-22 19:00N 09°32' W 017°23'713.4
2018-Apr-22 18:30N 09°37' W 017°28'2313.4
2018-Apr-22 16:49N 09°50' W 017°47'513.3
2018-Apr-22 16:26N 09°53' W 017°51'  
2018-Apr-19 11:14N 26°48' W 014°24'714.3
2018-Apr-19 10:44N 26°54' W 014°19'1314.2
2018-Apr-19 09:49N 27°04' W 014°11'414.2
2018-Apr-19 09:30N 27°08' W 014°08'714.3
2018-Apr-19 09:01N 27°14' W 014°03'814.4
2018-Apr-19 08:28N 27°20' W 013°58'714.5
2018-Apr-19 08:00N 27°26' W 013°54'1714.6
2018-Apr-19 06:50N 27°40' W 013°43'514.6
2018-Apr-19 06:29N 27°44' W 013°40'714.5
2018-Apr-19 06:00N 27°50' W 013°36'914.5
2018-Apr-19 05:24N 27°57' W 013°30'614.6
2018-Apr-19 05:00N 28°02' W 013°26'814.6
2018-Apr-19 04:28N 28°08' W 013°22'714.7
2018-Apr-19 03:58N 28°14' W 013°17'714.4
2018-Apr-19 03:30N 28°20' W 013°12'814.4
2018-Apr-19 02:57N 28°26' W 013°07'714.0
2018-Apr-19 02:29N 28°32' W 013°03'1614.2
2018-Apr-19 01:23N 28°45' W 012°53'614.6
2018-Apr-19 00:59N 28°50' W 012°50'714.7
2018-Apr-19 00:30N 28°56' W 012°45'714.6
2018-Apr-19 00:00N 29°02' W 012°40'714.5
2018-Apr-18 23:30N 29°08' W 012°36'714.4
2018-Apr-18 23:00N 29°14' W 012°31'714.6
2018-Apr-18 22:30N 29°20' W 012°26'714.6
2018-Apr-18 22:00N 29°26' W 012°22'814.5
2018-Apr-18 21:29N 29°32' W 012°17'714.4
2018-Apr-18 21:00N 29°38' W 012°12'914.3
2018-Apr-18 20:22N 29°45' W 012°06'514.3
2018-Apr-18 20:00N 29°49' W 012°03'814.1
2018-Apr-18 19:28N 29°56' W 011°58'614.1
2018-Apr-18 19:00N 30°01' W 011°54'714.2
2018-Apr-18 18:30N 30°07' W 011°50'714.3
2018-Apr-18 18:00N 30°13' W 011°45'714.2
2018-Apr-18 17:30N 30°19' W 011°40'714.3
2018-Apr-18 17:00N 30°25' W 011°36'714.2
2018-Apr-18 16:30N 30°31' W 011°31'714.1
2018-Apr-18 16:00N 30°37' W 011°26'1414.3
2018-Apr-18 15:00N 30°48' W 011°17'914.5
2018-Apr-18 14:24N 30°56' W 011°11'614.5
2018-Apr-18 13:59N 31°00' W 011°07'814.4
2018-Apr-18 13:27N 31°07' W 011°02'913.8
2018-Apr-18 12:49N 31°14' W 010°57'3814.1
2018-Apr-18 10:08N 31°45' W 010°32'514.1
2018-Apr-18 09:49N 31°49' W 010°29'514.2
2018-Apr-18 09:30N 31°53' W 010°26'814.0
2018-Apr-18 08:56N 31°59' W 010°21'360 8.6
2018-Apr-16 15:00N 36°11' W 005°09'3 6.7
2018-Apr-16 14:29N 36°11' W 005°05'3 6.8
2018-Apr-16 13:59N 36°11' W 005°01'16 1.7
2018-Apr-16 04:38N 36°17' W 004°42'11 4.3
2018-Apr-16 02:03N 36°15' W 004°56'1 3.3
2018-Apr-16 01:50N 36°15' W 004°57'6 3.5
2018-Apr-16 00:02N 36°12' W 005°03'1 3.7
2018-Apr-15 23:51N 36°11' W 005°04'2 0.7
2018-Apr-15 21:17N 36°10' W 005°06'0 0.9
2018-Apr-15 20:58N 36°11' W 005°06'3 7.1
2018-Apr-15 20:30N 36°13' W 005°03'5 8.1
2018-Apr-15 19:56N 36°13' W 004°57'5 9.5
2018-Apr-15 19:23N 36°08' W 004°59'65813.0
2018-Apr-13 16:44N 37°42' E 008°35'1313.3
2018-Apr-13 15:43N 37°44' E 008°52'312.9
2018-Apr-13 15:29N 37°44' E 008°56'613.1
2018-Apr-13 15:00N 37°44' E 009°04'713.0
2018-Apr-13 14:30N 37°43' E 009°12'612.9
2018-Apr-13 14:00N 37°42' E 009°20'712.9
2018-Apr-13 13:30N 37°41' E 009°29'712.8
2018-Apr-13 12:57N 37°41' E 009°38'612.6
2018-Apr-13 12:27N 37°40' E 009°45'613.2
2018-Apr-13 11:59N 37°40' E 009°53'612.8
2018-Apr-13 11:30N 37°39' E 010°01'  

Dump ship's entire track history